sensor_id;sensor_type;location;lat;lon;timestamp;P1;durP1;ratioP1;P2;durP2;ratioP2
19205;SDS011;59358;52.134;5.596;2022-10-16T00:02:24;7.03;;;3.30;;
19205;SDS011;59358;52.134;5.596;2022-10-16T00:04:51;8.23;;;3.30;;
19205;SDS011;59358;52.134;5.596;2022-10-16T00:07:19;10.80;;;3.30;;
19205;SDS011;59358;52.134;5.596;2022-10-16T00:09:47;7.45;;;3.42;;
19205;SDS011;59358;52.134;5.596;2022-10-16T00:12:15;8.85;;;4.10;;
19205;SDS011;59358;52.134;5.596;2022-10-16T00:14:41;11.45;;;4.22;;
19205;SDS011;59358;52.134;5.596;2022-10-16T00:17:09;8.65;;;3.33;;
19205;SDS011;59358;52.134;5.596;2022-10-16T00:19:35;6.85;;;3.78;;
19205;SDS011;59358;52.134;5.596;2022-10-16T00:22:02;9.00;;;3.75;;
19205;SDS011;59358;52.134;5.596;2022-10-16T00:24:29;11.57;;;3.83;;
19205;SDS011;59358;52.134;5.596;2022-10-16T00:26:56;10.25;;;3.50;;
19205;SDS011;59358;52.134;5.596;2022-10-16T00:29:24;7.55;;;3.40;;
19205;SDS011;59358;52.134;5.596;2022-10-16T00:31:51;6.95;;;3.42;;
19205;SDS011;59358;52.134;5.596;2022-10-16T00:34:17;8.07;;;3.55;;
19205;SDS011;59358;52.134;5.596;2022-10-16T00:36:45;7.22;;;3.60;;
19205;SDS011;59358;52.134;5.596;2022-10-16T00:39:11;6.40;;;3.40;;
19205;SDS011;59358;52.134;5.596;2022-10-16T00:41:38;7.55;;;3.42;;
19205;SDS011;59358;52.134;5.596;2022-10-16T00:47:08;7.32;;;3.90;;
19205;SDS011;59358;52.134;5.596;2022-10-16T00:49:35;5.88;;;3.30;;
19205;SDS011;59358;52.134;5.596;2022-10-16T00:52:03;5.47;;;3.13;;
19205;SDS011;59358;52.134;5.596;2022-10-16T00:54:30;7.28;;;3.55;;
19205;SDS011;59358;52.134;5.596;2022-10-16T00:56:59;4.93;;;3.10;;
19205;SDS011;59358;52.134;5.596;2022-10-16T00:59:28;9.07;;;4.03;;
19205;SDS011;59358;52.134;5.596;2022-10-16T01:01:57;7.68;;;3.65;;
19205;SDS011;59358;52.134;5.596;2022-10-16T01:04:26;5.53;;;3.15;;
19205;SDS011;59358;52.134;5.596;2022-10-16T01:06:59;9.73;;;3.47;;
19205;SDS011;59358;52.134;5.596;2022-10-16T01:09:35;6.35;;;3.35;;
19205;SDS011;59358;52.134;5.596;2022-10-16T01:12:10;5.70;;;3.05;;
19205;SDS011;59358;52.134;5.596;2022-10-16T01:14:42;6.03;;;3.22;;
19205;SDS011;59358;52.134;5.596;2022-10-16T01:17:15;5.85;;;3.13;;
19205;SDS011;59358;52.134;5.596;2022-10-16T01:19:52;8.70;;;3.05;;
19205;SDS011;59358;52.134;5.596;2022-10-16T01:22:33;6.32;;;3.00;;
19205;SDS011;59358;52.134;5.596;2022-10-16T01:25:05;8.35;;;2.75;;
19205;SDS011;59358;52.134;5.596;2022-10-16T01:27:39;7.47;;;3.38;;
19205;SDS011;59358;52.134;5.596;2022-10-16T01:30:10;5.25;;;3.10;;
19205;SDS011;59358;52.134;5.596;2022-10-16T01:32:40;5.28;;;2.90;;
19205;SDS011;59358;52.134;5.596;2022-10-16T01:35:11;7.13;;;3.20;;
19205;SDS011;59358;52.134;5.596;2022-10-16T01:37:44;6.30;;;3.33;;
19205;SDS011;59358;52.134;5.596;2022-10-16T01:40:16;5.82;;;3.53;;
19205;SDS011;59358;52.134;5.596;2022-10-16T01:42:48;4.70;;;3.20;;
19205;SDS011;59358;52.134;5.596;2022-10-16T01:45:19;6.90;;;3.13;;
19205;SDS011;59358;52.134;5.596;2022-10-16T01:47:47;7.57;;;3.70;;
19205;SDS011;59358;52.134;5.596;2022-10-16T01:50:18;18.55;;;3.92;;
19205;SDS011;59358;52.134;5.596;2022-10-16T01:52:47;6.97;;;3.30;;
19205;SDS011;59358;52.134;5.596;2022-10-16T01:55:18;5.30;;;3.05;;
19205;SDS011;59358;52.134;5.596;2022-10-16T01:57:50;5.40;;;3.20;;
19205;SDS011;59358;52.134;5.596;2022-10-16T02:00:19;6.15;;;3.35;;
19205;SDS011;59358;52.134;5.596;2022-10-16T02:02:47;5.57;;;3.90;;
19205;SDS011;59358;52.134;5.596;2022-10-16T02:05:18;6.50;;;3.60;;
19205;SDS011;59358;52.134;5.596;2022-10-16T02:07:49;6.82;;;3.30;;
19205;SDS011;59358;52.134;5.596;2022-10-16T02:10:16;7.72;;;3.25;;
19205;SDS011;59358;52.134;5.596;2022-10-16T02:12:44;6.22;;;3.78;;
19205;SDS011;59358;52.134;5.596;2022-10-16T02:15:17;6.50;;;3.80;;
19205;SDS011;59358;52.134;5.596;2022-10-16T02:17:44;9.48;;;3.05;;
19205;SDS011;59358;52.134;5.596;2022-10-16T02:20:11;5.45;;;3.42;;
19205;SDS011;59358;52.134;5.596;2022-10-16T02:22:39;7.28;;;3.30;;
19205;SDS011;59358;52.134;5.596;2022-10-16T02:25:10;5.15;;;3.10;;
19205;SDS011;59358;52.134;5.596;2022-10-16T02:27:42;3.45;;;3.08;;
19205;SDS011;59358;52.134;5.596;2022-10-16T02:30:16;4.40;;;3.35;;
19205;SDS011;59358;52.134;5.596;2022-10-16T02:32:48;8.38;;;3.58;;
19205;SDS011;59358;52.134;5.596;2022-10-16T02:35:17;6.57;;;3.85;;
19205;SDS011;59358;52.134;5.596;2022-10-16T02:37:46;7.28;;;3.58;;
19205;SDS011;59358;52.134;5.596;2022-10-16T02:40:14;7.20;;;3.10;;
19205;SDS011;59358;52.134;5.596;2022-10-16T02:42:41;5.18;;;3.40;;
19205;SDS011;59358;52.134;5.596;2022-10-16T02:45:09;7.38;;;3.83;;
19205;SDS011;59358;52.134;5.596;2022-10-16T02:47:39;5.47;;;3.83;;
19205;SDS011;59358;52.134;5.596;2022-10-16T02:50:06;6.05;;;3.90;;
19205;SDS011;59358;52.134;5.596;2022-10-16T02:52:33;7.00;;;3.60;;
19205;SDS011;59358;52.134;5.596;2022-10-16T02:55:00;4.70;;;3.80;;
19205;SDS011;59358;52.134;5.596;2022-10-16T02:57:27;6.57;;;3.63;;
19205;SDS011;59358;52.134;5.596;2022-10-16T02:59:54;6.53;;;4.07;;
19205;SDS011;59358;52.134;5.596;2022-10-16T03:02:20;6.45;;;4.15;;
19205;SDS011;59358;52.134;5.596;2022-10-16T03:04:49;10.60;;;4.53;;
19205;SDS011;59358;52.134;5.596;2022-10-16T03:07:16;11.02;;;3.70;;
19205;SDS011;59358;52.134;5.596;2022-10-16T03:09:43;4.43;;;4.00;;
19205;SDS011;59358;52.134;5.596;2022-10-16T03:12:09;7.57;;;3.75;;
19205;SDS011;59358;52.134;5.596;2022-10-16T03:14:37;6.05;;;3.33;;
19205;SDS011;59358;52.134;5.596;2022-10-16T03:17:04;6.53;;;3.30;;
19205;SDS011;59358;52.134;5.596;2022-10-16T03:19:31;4.65;;;3.28;;
19205;SDS011;59358;52.134;5.596;2022-10-16T03:22:00;4.00;;;3.58;;
19205;SDS011;59358;52.134;5.596;2022-10-16T03:24:26;5.65;;;3.70;;
19205;SDS011;59358;52.134;5.596;2022-10-16T03:26:53;7.85;;;3.78;;
19205;SDS011;59358;52.134;5.596;2022-10-16T03:29:20;4.57;;;3.65;;
19205;SDS011;59358;52.134;5.596;2022-10-16T03:31:47;6.80;;;4.25;;
19205;SDS011;59358;52.134;5.596;2022-10-16T03:34:14;6.82;;;3.55;;
19205;SDS011;59358;52.134;5.596;2022-10-16T03:36:41;4.47;;;3.60;;
19205;SDS011;59358;52.134;5.596;2022-10-16T03:39:09;6.22;;;3.58;;
19205;SDS011;59358;52.134;5.596;2022-10-16T03:41:36;4.97;;;3.90;;
19205;SDS011;59358;52.134;5.596;2022-10-16T03:44:03;6.30;;;3.47;;
19205;SDS011;59358;52.134;5.596;2022-10-16T03:46:30;6.93;;;4.05;;
19205;SDS011;59358;52.134;5.596;2022-10-16T03:48:56;5.78;;;3.65;;
19205;SDS011;59358;52.134;5.596;2022-10-16T03:51:23;4.68;;;3.90;;
19205;SDS011;59358;52.134;5.596;2022-10-16T03:53:50;6.45;;;4.10;;
19205;SDS011;59358;52.134;5.596;2022-10-16T03:56:19;4.97;;;3.70;;
19205;SDS011;59358;52.134;5.596;2022-10-16T03:58:46;8.77;;;3.72;;
19205;SDS011;59358;52.134;5.596;2022-10-16T04:01:13;5.10;;;3.10;;
19205;SDS011;59358;52.134;5.596;2022-10-16T04:03:41;7.20;;;3.60;;
19205;SDS011;59358;52.134;5.596;2022-10-16T04:06:08;6.22;;;3.53;;
19205;SDS011;59358;52.134;5.596;2022-10-16T04:08:35;7.47;;;3.75;;
19205;SDS011;59358;52.134;5.596;2022-10-16T04:11:02;6.53;;;3.85;;
19205;SDS011;59358;52.134;5.596;2022-10-16T04:13:30;7.88;;;4.07;;
19205;SDS011;59358;52.134;5.596;2022-10-16T04:15:56;6.72;;;3.95;;
19205;SDS011;59358;52.134;5.596;2022-10-16T04:18:23;5.68;;;3.30;;
19205;SDS011;59358;52.134;5.596;2022-10-16T04:20:52;14.98;;;3.75;;
19205;SDS011;59358;52.134;5.596;2022-10-16T04:23:19;5.63;;;3.53;;
19205;SDS011;59358;52.134;5.596;2022-10-16T04:25:47;4.22;;;3.13;;
19205;SDS011;59358;52.134;5.596;2022-10-16T04:28:15;13.27;;;4.32;;
19205;SDS011;59358;52.134;5.596;2022-10-16T04:30:43;6.88;;;3.70;;
19205;SDS011;59358;52.134;5.596;2022-10-16T04:33:09;4.80;;;3.58;;
19205;SDS011;59358;52.134;5.596;2022-10-16T04:35:37;6.93;;;3.47;;
19205;SDS011;59358;52.134;5.596;2022-10-16T04:38:04;3.83;;;2.90;;
19205;SDS011;59358;52.134;5.596;2022-10-16T04:40:31;4.07;;;3.05;;
19205;SDS011;59358;52.134;5.596;2022-10-16T04:43:00;7.95;;;4.13;;
19205;SDS011;59358;52.134;5.596;2022-10-16T04:45:28;7.03;;;3.65;;
19205;SDS011;59358;52.134;5.596;2022-10-16T04:47:57;5.43;;;3.50;;
19205;SDS011;59358;52.134;5.596;2022-10-16T04:50:25;5.22;;;3.38;;
19205;SDS011;59358;52.134;5.596;2022-10-16T04:52:52;7.72;;;4.07;;
19205;SDS011;59358;52.134;5.596;2022-10-16T04:55:19;7.10;;;3.72;;
19205;SDS011;59358;52.134;5.596;2022-10-16T04:57:46;4.22;;;3.28;;
19205;SDS011;59358;52.134;5.596;2022-10-16T05:00:13;4.07;;;3.35;;
19205;SDS011;59358;52.134;5.596;2022-10-16T05:02:39;6.70;;;3.33;;
19205;SDS011;59358;52.134;5.596;2022-10-16T05:05:08;6.30;;;3.17;;
19205;SDS011;59358;52.134;5.596;2022-10-16T05:07:35;5.35;;;3.50;;
19205;SDS011;59358;52.134;5.596;2022-10-16T05:10:01;8.35;;;3.65;;
19205;SDS011;59358;52.134;5.596;2022-10-16T05:12:28;7.22;;;3.47;;
19205;SDS011;59358;52.134;5.596;2022-10-16T05:14:55;5.32;;;3.25;;
19205;SDS011;59358;52.134;5.596;2022-10-16T05:17:23;6.88;;;3.42;;
19205;SDS011;59358;52.134;5.596;2022-10-16T05:19:50;8.25;;;3.80;;
19205;SDS011;59358;52.134;5.596;2022-10-16T05:22:19;7.57;;;3.78;;
19205;SDS011;59358;52.134;5.596;2022-10-16T05:24:45;5.88;;;3.88;;
19205;SDS011;59358;52.134;5.596;2022-10-16T05:27:12;7.25;;;4.03;;
19205;SDS011;59358;52.134;5.596;2022-10-16T05:29:44;9.88;;;4.30;;
19205;SDS011;59358;52.134;5.596;2022-10-16T05:32:11;8.57;;;4.75;;
19205;SDS011;59358;52.134;5.596;2022-10-16T05:34:39;8.50;;;4.50;;
19205;SDS011;59358;52.134;5.596;2022-10-16T05:37:05;6.82;;;4.20;;
19205;SDS011;59358;52.134;5.596;2022-10-16T05:39:34;6.13;;;4.60;;
19205;SDS011;59358;52.134;5.596;2022-10-16T05:42:01;9.80;;;4.90;;
19205;SDS011;59358;52.134;5.596;2022-10-16T05:44:28;6.55;;;4.88;;
19205;SDS011;59358;52.134;5.596;2022-10-16T05:46:55;11.15;;;5.43;;
19205;SDS011;59358;52.134;5.596;2022-10-16T05:49:22;15.18;;;5.85;;
19205;SDS011;59358;52.134;5.596;2022-10-16T05:51:48;9.23;;;5.40;;
19205;SDS011;59358;52.134;5.596;2022-10-16T05:54:15;13.10;;;6.13;;
19205;SDS011;59358;52.134;5.596;2022-10-16T05:56:44;10.93;;;5.97;;
19205;SDS011;59358;52.134;5.596;2022-10-16T05:59:11;9.80;;;5.78;;
19205;SDS011;59358;52.134;5.596;2022-10-16T06:01:38;8.52;;;5.82;;
19205;SDS011;59358;52.134;5.596;2022-10-16T06:04:05;8.20;;;6.05;;
19205;SDS011;59358;52.134;5.596;2022-10-16T06:06:31;9.35;;;6.70;;
19205;SDS011;59358;52.134;5.596;2022-10-16T06:08:58;7.82;;;5.72;;
19205;SDS011;59358;52.134;5.596;2022-10-16T06:11:25;9.10;;;6.05;;
19205;SDS011;59358;52.134;5.596;2022-10-16T06:13:56;7.65;;;5.75;;
19205;SDS011;59358;52.134;5.596;2022-10-16T06:16:24;5.93;;;5.00;;
19205;SDS011;59358;52.134;5.596;2022-10-16T06:18:53;6.30;;;5.10;;
19205;SDS011;59358;52.134;5.596;2022-10-16T06:21:21;7.13;;;4.97;;
19205;SDS011;59358;52.134;5.596;2022-10-16T06:23:49;7.43;;;5.20;;
19205;SDS011;59358;52.134;5.596;2022-10-16T06:26:17;10.32;;;4.90;;
19205;SDS011;59358;52.134;5.596;2022-10-16T06:28:45;8.27;;;4.80;;
19205;SDS011;59358;52.134;5.596;2022-10-16T06:31:13;5.90;;;4.65;;
19205;SDS011;59358;52.134;5.596;2022-10-16T06:33:40;9.15;;;4.72;;
19205;SDS011;59358;52.134;5.596;2022-10-16T06:36:08;9.20;;;4.78;;
19205;SDS011;59358;52.134;5.596;2022-10-16T06:38:36;7.72;;;4.93;;
19205;SDS011;59358;52.134;5.596;2022-10-16T06:41:04;6.45;;;3.88;;
19205;SDS011;59358;52.134;5.596;2022-10-16T06:43:33;7.03;;;4.30;;
19205;SDS011;59358;52.134;5.596;2022-10-16T06:46:00;6.95;;;3.83;;
19205;SDS011;59358;52.134;5.596;2022-10-16T06:48:30;11.63;;;4.65;;
19205;SDS011;59358;52.134;5.596;2022-10-16T06:50:57;5.85;;;3.72;;
19205;SDS011;59358;52.134;5.596;2022-10-16T06:53:25;7.35;;;3.90;;
19205;SDS011;59358;52.134;5.596;2022-10-16T06:55:54;8.85;;;3.95;;
19205;SDS011;59358;52.134;5.596;2022-10-16T06:58:21;9.35;;;3.92;;
19205;SDS011;59358;52.134;5.596;2022-10-16T07:00:49;5.38;;;3.63;;
19205;SDS011;59358;52.134;5.596;2022-10-16T07:03:20;12.75;;;4.07;;
19205;SDS011;59358;52.134;5.596;2022-10-16T07:05:49;6.82;;;3.70;;
19205;SDS011;59358;52.134;5.596;2022-10-16T07:08:15;5.63;;;3.67;;
19205;SDS011;59358;52.134;5.596;2022-10-16T07:10:42;5.28;;;3.85;;
19205;SDS011;59358;52.134;5.596;2022-10-16T07:13:09;8.85;;;4.30;;
19205;SDS011;59358;52.134;5.596;2022-10-16T07:15:38;5.13;;;3.95;;
19205;SDS011;59358;52.134;5.596;2022-10-16T07:18:05;7.78;;;4.25;;
19205;SDS011;59358;52.134;5.596;2022-10-16T07:20:32;6.07;;;3.60;;
19205;SDS011;59358;52.134;5.596;2022-10-16T07:23:01;3.83;;;3.28;;
19205;SDS011;59358;52.134;5.596;2022-10-16T07:25:28;7.43;;;3.38;;
19205;SDS011;59358;52.134;5.596;2022-10-16T07:27:54;5.50;;;3.28;;
19205;SDS011;59358;52.134;5.596;2022-10-16T07:30:21;5.53;;;2.97;;
19205;SDS011;59358;52.134;5.596;2022-10-16T07:32:49;6.22;;;2.97;;
19205;SDS011;59358;52.134;5.596;2022-10-16T07:35:15;8.00;;;3.08;;
19205;SDS011;59358;52.134;5.596;2022-10-16T07:37:44;6.20;;;3.33;;
19205;SDS011;59358;52.134;5.596;2022-10-16T07:40:15;7.50;;;3.00;;
19205;SDS011;59358;52.134;5.596;2022-10-16T07:42:42;7.15;;;3.20;;
19205;SDS011;59358;52.134;5.596;2022-10-16T07:45:09;5.00;;;3.13;;
19205;SDS011;59358;52.134;5.596;2022-10-16T07:47:36;4.78;;;3.03;;
19205;SDS011;59358;52.134;5.596;2022-10-16T07:50:03;6.00;;;3.00;;
19205;SDS011;59358;52.134;5.596;2022-10-16T07:52:30;6.60;;;3.00;;
19205;SDS011;59358;52.134;5.596;2022-10-16T07:54:57;5.40;;;2.92;;
19205;SDS011;59358;52.134;5.596;2022-10-16T07:57:25;5.32;;;3.30;;
19205;SDS011;59358;52.134;5.596;2022-10-16T07:59:52;7.07;;;3.72;;
19205;SDS011;59358;52.134;5.596;2022-10-16T08:02:19;4.40;;;3.10;;
19205;SDS011;59358;52.134;5.596;2022-10-16T08:04:46;5.10;;;3.65;;
19205;SDS011;59358;52.134;5.596;2022-10-16T08:07:13;6.45;;;3.30;;
19205;SDS011;59358;52.134;5.596;2022-10-16T08:09:40;6.95;;;3.72;;
19205;SDS011;59358;52.134;5.596;2022-10-16T08:12:07;8.48;;;3.28;;
19205;SDS011;59358;52.134;5.596;2022-10-16T08:14:37;5.22;;;3.53;;
19205;SDS011;59358;52.134;5.596;2022-10-16T08:17:03;7.28;;;3.42;;
19205;SDS011;59358;52.134;5.596;2022-10-16T08:19:30;4.53;;;3.67;;
19205;SDS011;59358;52.134;5.596;2022-10-16T08:21:59;6.50;;;3.25;;
19205;SDS011;59358;52.134;5.596;2022-10-16T08:24:26;6.57;;;3.22;;
19205;SDS011;59358;52.134;5.596;2022-10-16T08:26:55;5.53;;;3.25;;
19205;SDS011;59358;52.134;5.596;2022-10-16T08:29:22;8.32;;;3.50;;
19205;SDS011;59358;52.134;5.596;2022-10-16T08:31:50;6.25;;;3.58;;
19205;SDS011;59358;52.134;5.596;2022-10-16T08:34:17;5.22;;;3.17;;
19205;SDS011;59358;52.134;5.596;2022-10-16T08:36:44;6.07;;;3.15;;
19205;SDS011;59358;52.134;5.596;2022-10-16T08:39:11;9.88;;;4.03;;
19205;SDS011;59358;52.134;5.596;2022-10-16T08:44:54;5.95;;;2.45;;
19205;SDS011;59358;52.134;5.596;2022-10-16T08:47:39;8.48;;;3.60;;
19205;SDS011;59358;52.134;5.596;2022-10-16T08:50:14;8.25;;;3.45;;
19205;SDS011;59358;52.134;5.596;2022-10-16T08:52:47;5.57;;;3.30;;
19205;SDS011;59358;52.134;5.596;2022-10-16T08:55:17;6.28;;;3.25;;
19205;SDS011;59358;52.134;5.596;2022-10-16T08:57:57;9.30;;;3.63;;
19205;SDS011;59358;52.134;5.596;2022-10-16T09:00:24;4.35;;;2.92;;
19205;SDS011;59358;52.134;5.596;2022-10-16T09:02:55;8.88;;;3.20;;
19205;SDS011;59358;52.134;5.596;2022-10-16T09:08:19;13.10;;;3.65;;
19205;SDS011;59358;52.134;5.596;2022-10-16T09:10:52;9.23;;;2.97;;
19205;SDS011;59358;52.134;5.596;2022-10-16T09:13:26;11.40;;;3.20;;
19205;SDS011;59358;52.134;5.596;2022-10-16T09:15:58;8.73;;;3.03;;
19205;SDS011;59358;52.134;5.596;2022-10-16T09:18:39;7.32;;;2.47;;
19205;SDS011;59358;52.134;5.596;2022-10-16T09:21:13;11.02;;;3.22;;
19205;SDS011;59358;52.134;5.596;2022-10-16T09:23:44;11.63;;;2.78;;
19205;SDS011;59358;52.134;5.596;2022-10-16T09:26:13;13.63;;;2.85;;
19205;SDS011;59358;52.134;5.596;2022-10-16T09:28:41;8.05;;;2.30;;
19205;SDS011;59358;52.134;5.596;2022-10-16T09:31:11;7.95;;;2.50;;
19205;SDS011;59358;52.134;5.596;2022-10-16T09:33:43;9.15;;;2.47;;
19205;SDS011;59358;52.134;5.596;2022-10-16T09:36:14;15.07;;;3.10;;
19205;SDS011;59358;52.134;5.596;2022-10-16T09:38:41;10.07;;;2.45;;
19205;SDS011;59358;52.134;5.596;2022-10-16T09:41:14;9.50;;;2.85;;
19205;SDS011;59358;52.134;5.596;2022-10-16T09:43:46;14.68;;;3.10;;
19205;SDS011;59358;52.134;5.596;2022-10-16T09:46:24;12.05;;;2.95;;
19205;SDS011;59358;52.134;5.596;2022-10-16T09:48:56;11.05;;;2.65;;
19205;SDS011;59358;52.134;5.596;2022-10-16T09:51:25;10.15;;;2.50;;
19205;SDS011;59358;52.134;5.596;2022-10-16T09:53:54;12.65;;;2.65;;
19205;SDS011;59358;52.134;5.596;2022-10-16T09:56:24;14.32;;;3.58;;
19205;SDS011;59358;52.134;5.596;2022-10-16T09:58:52;14.35;;;2.95;;
19205;SDS011;59358;52.134;5.596;2022-10-16T10:01:21;11.93;;;2.90;;
19205;SDS011;59358;52.134;5.596;2022-10-16T10:03:51;10.15;;;3.10;;
19205;SDS011;59358;52.134;5.596;2022-10-16T10:06:27;9.68;;;2.38;;
19205;SDS011;59358;52.134;5.596;2022-10-16T10:08:56;12.18;;;3.25;;
19205;SDS011;59358;52.134;5.596;2022-10-16T10:11:39;12.35;;;2.47;;
19205;SDS011;59358;52.134;5.596;2022-10-16T10:14:18;7.95;;;2.10;;
19205;SDS011;59358;52.134;5.596;2022-10-16T10:16:52;8.40;;;3.47;;
19205;SDS011;59358;52.134;5.596;2022-10-16T10:19:29;13.57;;;2.67;;
19205;SDS011;59358;52.134;5.596;2022-10-16T10:21:56;15.18;;;3.38;;
19205;SDS011;59358;52.134;5.596;2022-10-16T10:24:23;7.45;;;2.35;;
19205;SDS011;59358;52.134;5.596;2022-10-16T10:26:52;10.05;;;2.60;;
19205;SDS011;59358;52.134;5.596;2022-10-16T10:29:26;9.45;;;2.72;;
19205;SDS011;59358;52.134;5.596;2022-10-16T10:32:04;9.68;;;2.88;;
19205;SDS011;59358;52.134;5.596;2022-10-16T10:34:47;13.38;;;2.90;;
19205;SDS011;59358;52.134;5.596;2022-10-16T10:37:24;7.47;;;2.47;;
19205;SDS011;59358;52.134;5.596;2022-10-16T10:40:04;11.63;;;3.00;;
19205;SDS011;59358;52.134;5.596;2022-10-16T10:42:40;8.50;;;2.72;;
19205;SDS011;59358;52.134;5.596;2022-10-16T10:45:16;10.82;;;2.10;;
19205;SDS011;59358;52.134;5.596;2022-10-16T10:47:52;13.50;;;2.30;;
19205;SDS011;59358;52.134;5.596;2022-10-16T10:50:30;15.80;;;2.78;;
19205;SDS011;59358;52.134;5.596;2022-10-16T10:53:06;10.40;;;2.72;;
19205;SDS011;59358;52.134;5.596;2022-10-16T10:55:40;18.42;;;2.75;;
19205;SDS011;59358;52.134;5.596;2022-10-16T10:58:24;12.10;;;2.92;;
19205;SDS011;59358;52.134;5.596;2022-10-16T11:01:26;13.05;;;3.22;;
19205;SDS011;59358;52.134;5.596;2022-10-16T11:04:07;12.35;;;2.65;;
19205;SDS011;59358;52.134;5.596;2022-10-16T11:06:55;8.35;;;2.17;;
19205;SDS011;59358;52.134;5.596;2022-10-16T11:09:26;12.38;;;2.40;;
19205;SDS011;59358;52.134;5.596;2022-10-16T11:11:58;9.85;;;2.28;;
19205;SDS011;59358;52.134;5.596;2022-10-16T11:14:28;13.50;;;2.72;;
19205;SDS011;59358;52.134;5.596;2022-10-16T11:17:01;9.35;;;2.33;;
19205;SDS011;59358;52.134;5.596;2022-10-16T11:19:35;12.38;;;2.22;;
19205;SDS011;59358;52.134;5.596;2022-10-16T11:22:09;11.88;;;2.50;;
19205;SDS011;59358;52.134;5.596;2022-10-16T11:24:42;10.68;;;2.35;;
19205;SDS011;59358;52.134;5.596;2022-10-16T11:27:15;7.85;;;2.38;;
19205;SDS011;59358;52.134;5.596;2022-10-16T11:29:46;8.63;;;2.33;;
19205;SDS011;59358;52.134;5.596;2022-10-16T11:32:19;11.07;;;2.38;;
19205;SDS011;59358;52.134;5.596;2022-10-16T11:34:51;15.70;;;3.03;;
19205;SDS011;59358;52.134;5.596;2022-10-16T11:37:25;9.45;;;2.05;;
19205;SDS011;59358;52.134;5.596;2022-10-16T11:39:56;10.25;;;2.80;;
19205;SDS011;59358;52.134;5.596;2022-10-16T11:42:30;8.82;;;1.90;;
19205;SDS011;59358;52.134;5.596;2022-10-16T11:45:07;11.65;;;2.30;;
19205;SDS011;59358;52.134;5.596;2022-10-16T11:47:42;7.20;;;2.10;;
19205;SDS011;59358;52.134;5.596;2022-10-16T11:50:13;8.45;;;2.22;;
19205;SDS011;59358;52.134;5.596;2022-10-16T11:52:51;11.35;;;1.77;;
19205;SDS011;59358;52.134;5.596;2022-10-16T11:55:24;11.32;;;1.80;;
19205;SDS011;59358;52.134;5.596;2022-10-16T11:57:57;8.05;;;1.85;;
19205;SDS011;59358;52.134;5.596;2022-10-16T12:00:30;6.38;;;1.70;;
19205;SDS011;59358;52.134;5.596;2022-10-16T12:03:04;11.57;;;2.60;;
19205;SDS011;59358;52.134;5.596;2022-10-16T12:05:45;9.70;;;2.58;;
19205;SDS011;59358;52.134;5.596;2022-10-16T12:08:30;12.77;;;2.22;;
19205;SDS011;59358;52.134;5.596;2022-10-16T12:11:05;9.73;;;2.03;;
19205;SDS011;59358;52.134;5.596;2022-10-16T12:13:35;8.10;;;2.25;;
19205;SDS011;59358;52.134;5.596;2022-10-16T12:16:05;11.77;;;2.65;;
19205;SDS011;59358;52.134;5.596;2022-10-16T12:18:47;9.20;;;1.90;;
19205;SDS011;59358;52.134;5.596;2022-10-16T12:21:15;9.23;;;2.03;;
19205;SDS011;59358;52.134;5.596;2022-10-16T12:23:49;7.93;;;2.25;;
19205;SDS011;59358;52.134;5.596;2022-10-16T12:26:24;11.40;;;2.47;;
19205;SDS011;59358;52.134;5.596;2022-10-16T12:28:52;10.48;;;2.78;;
19205;SDS011;59358;52.134;5.596;2022-10-16T12:31:20;10.05;;;2.00;;
19205;SDS011;59358;52.134;5.596;2022-10-16T12:33:57;10.20;;;2.20;;
19205;SDS011;59358;52.134;5.596;2022-10-16T12:36:27;7.60;;;2.00;;
19205;SDS011;59358;52.134;5.596;2022-10-16T12:38:57;8.77;;;2.10;;
19205;SDS011;59358;52.134;5.596;2022-10-16T12:41:26;11.90;;;2.13;;
19205;SDS011;59358;52.134;5.596;2022-10-16T12:43:54;7.00;;;2.10;;
19205;SDS011;59358;52.134;5.596;2022-10-16T12:46:34;10.82;;;1.95;;
19205;SDS011;59358;52.134;5.596;2022-10-16T12:49:05;9.18;;;2.20;;
19205;SDS011;59358;52.134;5.596;2022-10-16T12:51:47;7.18;;;2.55;;
19205;SDS011;59358;52.134;5.596;2022-10-16T12:54:16;8.30;;;2.40;;
19205;SDS011;59358;52.134;5.596;2022-10-16T12:56:47;5.97;;;1.83;;
19205;SDS011;59358;52.134;5.596;2022-10-16T12:59:24;9.50;;;2.00;;
19205;SDS011;59358;52.134;5.596;2022-10-16T13:02:07;8.85;;;2.20;;
19205;SDS011;59358;52.134;5.596;2022-10-16T13:04:53;11.02;;;2.30;;
19205;SDS011;59358;52.134;5.596;2022-10-16T13:07:38;6.85;;;2.22;;
19205;SDS011;59358;52.134;5.596;2022-10-16T13:10:17;12.90;;;2.05;;
19205;SDS011;59358;52.134;5.596;2022-10-16T13:13:02;9.52;;;1.88;;
19205;SDS011;59358;52.134;5.596;2022-10-16T13:15:48;7.38;;;2.47;;
19205;SDS011;59358;52.134;5.596;2022-10-16T13:18:29;10.13;;;2.40;;
19205;SDS011;59358;52.134;5.596;2022-10-16T13:21:07;8.40;;;2.40;;
19205;SDS011;59358;52.134;5.596;2022-10-16T13:23:46;11.13;;;2.80;;
19205;SDS011;59358;52.134;5.596;2022-10-16T13:26:26;9.77;;;2.47;;
19205;SDS011;59358;52.134;5.596;2022-10-16T13:29:00;12.98;;;2.80;;
19205;SDS011;59358;52.134;5.596;2022-10-16T13:31:28;9.90;;;2.55;;
19205;SDS011;59358;52.134;5.596;2022-10-16T13:33:56;14.93;;;2.63;;
19205;SDS011;59358;52.134;5.596;2022-10-16T13:36:26;15.45;;;3.15;;
19205;SDS011;59358;52.134;5.596;2022-10-16T13:39:00;11.48;;;2.47;;
19205;SDS011;59358;52.134;5.596;2022-10-16T13:41:34;11.60;;;2.42;;
19205;SDS011;59358;52.134;5.596;2022-10-16T13:44:01;13.73;;;2.88;;
19205;SDS011;59358;52.134;5.596;2022-10-16T13:46:28;10.55;;;2.63;;
19205;SDS011;59358;52.134;5.596;2022-10-16T13:49:00;12.80;;;2.60;;
19205;SDS011;59358;52.134;5.596;2022-10-16T13:51:29;12.68;;;3.10;;
19205;SDS011;59358;52.134;5.596;2022-10-16T13:53:57;16.33;;;2.97;;
19205;SDS011;59358;52.134;5.596;2022-10-16T13:56:25;12.55;;;2.50;;
19205;SDS011;59358;52.134;5.596;2022-10-16T13:58:59;11.73;;;2.55;;
19205;SDS011;59358;52.134;5.596;2022-10-16T14:01:27;14.30;;;3.10;;
19205;SDS011;59358;52.134;5.596;2022-10-16T14:04:00;12.52;;;3.20;;
19205;SDS011;59358;52.134;5.596;2022-10-16T14:06:30;10.05;;;2.78;;
19205;SDS011;59358;52.134;5.596;2022-10-16T14:08:59;11.25;;;3.10;;
19205;SDS011;59358;52.134;5.596;2022-10-16T14:11:31;14.27;;;2.83;;
19205;SDS011;59358;52.134;5.596;2022-10-16T14:14:01;9.25;;;2.67;;
19205;SDS011;59358;52.134;5.596;2022-10-16T14:16:29;12.10;;;3.08;;
19205;SDS011;59358;52.134;5.596;2022-10-16T14:18:59;9.18;;;2.40;;
19205;SDS011;59358;52.134;5.596;2022-10-16T14:21:28;8.48;;;2.42;;
19205;SDS011;59358;52.134;5.596;2022-10-16T14:23:57;10.05;;;2.75;;
19205;SDS011;59358;52.134;5.596;2022-10-16T14:26:25;13.70;;;3.22;;
19205;SDS011;59358;52.134;5.596;2022-10-16T14:29:11;10.93;;;2.60;;
19205;SDS011;59358;52.134;5.596;2022-10-16T14:31:39;13.57;;;2.65;;
19205;SDS011;59358;52.134;5.596;2022-10-16T14:34:24;8.85;;;2.38;;
19205;SDS011;59358;52.134;5.596;2022-10-16T14:36:52;19.77;;;4.18;;
19205;SDS011;59358;52.134;5.596;2022-10-16T14:39:20;10.52;;;2.53;;
19205;SDS011;59358;52.134;5.596;2022-10-16T14:41:49;10.60;;;2.83;;
19205;SDS011;59358;52.134;5.596;2022-10-16T14:44:18;10.90;;;2.63;;
19205;SDS011;59358;52.134;5.596;2022-10-16T14:46:48;9.48;;;3.17;;
19205;SDS011;59358;52.134;5.596;2022-10-16T14:49:16;6.82;;;2.75;;
19205;SDS011;59358;52.134;5.596;2022-10-16T14:51:46;12.20;;;2.80;;
19205;SDS011;59358;52.134;5.596;2022-10-16T14:54:17;9.32;;;2.92;;
19205;SDS011;59358;52.134;5.596;2022-10-16T14:56:47;9.65;;;2.67;;
19205;SDS011;59358;52.134;5.596;2022-10-16T14:59:16;11.70;;;2.92;;
19205;SDS011;59358;52.134;5.596;2022-10-16T15:01:55;11.23;;;3.08;;
19205;SDS011;59358;52.134;5.596;2022-10-16T15:04:23;8.82;;;2.60;;
19205;SDS011;59358;52.134;5.596;2022-10-16T15:06:50;14.18;;;3.05;;
19205;SDS011;59358;52.134;5.596;2022-10-16T15:09:17;14.25;;;2.78;;
19205;SDS011;59358;52.134;5.596;2022-10-16T15:11:44;9.48;;;2.50;;